Time;durP1;ratioP1;P1;durP2;ratioP2;P2;SDS_P1;SDS_P2;PMS_P1;PMS_P2;Temp;Humidity;BMP_temperature;BMP_pressure;BME280_temperature;BME280_humidity;BME280_pressure;Samples;Min_cycle;Max_cycle;Signal;HPM_P1;HPM_P2
2023/12/30 00:01:20;;;;;;;0.10;0.10;;;6.90;99.90;;;;;;5084594;28;20238;-70
2023/12/30 00:03:47;;;;;;;0.30;0.28;;;6.90;99.90;;;;;;5068557;28;20040;-68
2023/12/30 00:06:12;;;;;;;0.10;0.10;;;6.90;99.90;;;;;;5084475;28;20513;-69
2023/12/30 00:08:38;;;;;;;0.00;0.00;;;6.80;99.90;;;;;;5067114;28;20080;-69
2023/12/30 00:11:05;;;;;;;0.10;0.10;;;6.80;99.90;;;;;;5065834;28;20036;-70
2023/12/30 00:13:31;;;;;;;0.35;0.20;;;6.80;99.90;;;;;;5066519;28;20484;-70
2023/12/30 00:15:56;;;;;;;0.08;0.08;;;6.70;99.90;;;;;;5062978;28;20072;-69
2023/12/30 00:18:24;;;;;;;0.15;0.13;;;6.70;99.90;;;;;;5072923;28;20024;-74
2023/12/30 00:20:49;;;;;;;0.10;0.10;;;6.60;99.90;;;;;;5065834;28;20102;-68
2023/12/30 00:23:15;;;;;;;0.43;0.43;;;6.70;99.90;;;;;;5054446;28;20487;-68
2023/12/30 00:25:41;;;;;;;0.03;0.03;;;6.60;99.90;;;;;;5052190;28;20111;-70
2023/12/30 00:28:08;;;;;;;0.10;0.10;;;6.60;99.90;;;;;;5052848;28;20068;-69
2023/12/30 00:30:34;;;;;;;0.28;0.28;;;6.60;99.90;;;;;;5061493;28;20041;-72
2023/12/30 00:32:59;;;;;;;0.30;0.30;;;6.70;99.90;;;;;;5051408;28;20434;-74
2023/12/30 00:35:25;;;;;;;0.30;0.30;;;6.70;99.90;;;;;;5060244;28;20033;-68
2023/12/30 00:37:53;;;;;;;1.73;0.85;;;6.70;99.90;;;;;;5062256;28;20048;-67
2023/12/30 00:40:18;;;;;;;0.22;0.15;;;6.60;99.90;;;;;;5065527;28;20446;-69
2023/12/30 00:42:44;;;;;;;0.10;0.10;;;6.60;99.90;;;;;;5066522;28;20036;-71
2023/12/30 00:45:14;;;;;;;0.00;0.00;;;6.60;99.90;;;;;;5064959;28;20471;-71
2023/12/30 00:47:41;;;;;;;0.10;0.10;;;6.60;99.90;;;;;;5058094;28;20072;-70
2023/12/30 00:50:07;;;;;;;1.65;0.40;;;6.70;99.90;;;;;;5061782;28;20090;-70
2023/12/30 00:52:33;;;;;;;0.15;0.10;;;6.70;99.90;;;;;;5056371;28;20602;-70
2023/12/30 00:54:58;;;;;;;3.90;0.65;;;6.70;99.90;;;;;;5068129;28;20257;-70
2023/12/30 00:57:24;;;;;;;1.50;0.28;;;6.70;99.90;;;;;;5062969;28;20047;-68
2023/12/30 00:59:49;;;;;;;0.00;0.00;;;6.70;99.90;;;;;;5064451;28;20508;-68
2023/12/30 01:02:16;;;;;;;2.10;0.40;;;6.60;99.90;;;;;;5051675;28;20559;-70
2023/12/30 01:04:41;;;;;;;0.15;0.15;;;6.60;99.90;;;;;;5068616;28;20033;-71
2023/12/30 01:07:07;;;;;;;0.22;0.22;;;6.60;99.90;;;;;;5067000;28;20032;-70
2023/12/30 01:09:32;;;;;;;0.10;0.10;;;6.60;99.90;;;;;;5066348;28;20040;-72
2023/12/30 01:11:58;;;;;;;0.10;0.10;;;6.60;99.90;;;;;;5050699;28;20041;-71
2023/12/30 01:14:23;;;;;;;0.10;0.10;;;6.60;99.90;;;;;;5055393;28;20036;-72
2023/12/30 01:16:49;;;;;;;0.00;0.00;;;6.70;99.90;;;;;;5057765;28;20044;-69
2023/12/30 01:19:16;;;;;;;0.10;0.10;;;6.70;99.90;;;;;;5065136;28;20086;-70
2023/12/30 01:21:46;;;;;;;0.00;0.00;;;6.60;99.90;;;;;;5065128;28;20487;-69
2023/12/30 01:24:12;;;;;;;0.20;0.20;;;6.70;99.90;;;;;;5069148;28;20037;-74
2023/12/30 01:26:38;;;;;;;0.22;0.20;;;6.70;99.90;;;;;;5062183;28;20121;-70
2023/12/30 01:29:04;;;;;;;0.00;0.00;;;6.70;99.90;;;;;;5050270;28;20055;-70
2023/12/30 01:31:30;;;;;;;0.95;0.95;;;6.60;99.90;;;;;;5053186;28;20036;-69
2023/12/30 01:33:56;;;;;;;0.20;0.20;;;6.60;99.90;;;;;;5058925;28;20039;-68
2023/12/30 01:36:21;;;;;;;13.43;0.75;;;6.60;99.90;;;;;;5049343;28;20033;-73
2023/12/30 01:38:47;;;;;;;0.00;0.00;;;6.60;99.90;;;;;;5063777;28;20446;-68
2023/12/30 01:41:14;;;;;;;0.10;0.10;;;6.60;99.90;;;;;;5050518;28;20521;-68
2023/12/30 01:43:39;;;;;;;2.15;0.80;;;6.60;99.90;;;;;;5058446;28;20075;-69
2023/12/30 01:46:09;;;;;;;0.10;0.10;;;6.60;99.90;;;;;;5063490;28;20588;-68
2023/12/30 01:48:35;;;;;;;0.20;0.20;;;6.60;99.90;;;;;;5067972;28;20395;-70
2023/12/30 01:51:02;;;;;;;0.00;0.00;;;6.60;99.90;;;;;;5067801;28;20591;-69
2023/12/30 01:53:30;;;;;;;0.10;0.10;;;6.60;99.90;;;;;;5063393;28;20523;-70
2023/12/30 01:55:57;;;;;;;1.08;0.10;;;6.60;99.90;;;;;;5068171;28;20048;-68
2023/12/30 01:58:23;;;;;;;0.00;0.00;;;6.60;99.90;;;;;;5067675;28;20060;-70
2023/12/30 02:00:51;;;;;;;0.15;0.15;;;6.60;99.90;;;;;;5089492;28;20045;-72
2023/12/30 02:03:17;;;;;;;0.20;0.20;;;6.60;99.90;;;;;;5059890;28;20032;-70
2023/12/30 02:05:44;;;;;;;0.00;0.00;;;6.50;99.90;;;;;;5061269;28;20037;-69
2023/12/30 02:08:10;;;;;;;0.40;0.40;;;6.50;99.90;;;;;;5066068;28;20113;-70
2023/12/30 02:10:36;;;;;;;0.10;0.10;;;6.60;99.90;;;;;;5059803;28;20088;-72
2023/12/30 02:13:02;;;;;;;0.55;0.55;;;6.60;99.90;;;;;;5062306;28;20055;-71
2023/12/30 02:15:27;;;;;;;0.10;0.10;;;6.60;99.90;;;;;;5068114;28;20376;-71
2023/12/30 02:17:56;;;;;;;1.10;0.55;;;6.60;99.90;;;;;;5065239;28;20037;-70
2023/12/30 02:20:22;;;;;;;0.52;0.43;;;6.60;99.90;;;;;;5062105;28;20041;-68
2023/12/30 02:22:48;;;;;;;9.07;0.28;;;6.60;99.90;;;;;;5059118;28;20037;-69
2023/12/30 02:25:16;;;;;;;0.30;0.15;;;6.60;99.90;;;;;;5067712;28;20159;-70
2023/12/30 02:27:43;;;;;;;0.28;0.28;;;6.50;99.90;;;;;;5059444;28;20045;-71
2023/12/30 02:30:09;;;;;;;0.03;0.03;;;6.50;99.90;;;;;;5083868;28;20098;-68
2023/12/30 02:32:35;;;;;;;0.17;0.17;;;6.60;99.90;;;;;;5079357;28;20548;-72
2023/12/30 02:35:00;;;;;;;0.00;0.00;;;6.50;99.90;;;;;;5065941;28;20247;-72
2023/12/30 02:37:26;;;;;;;0.00;0.00;;;6.50;99.90;;;;;;5061257;28;20033;-72
2023/12/30 02:39:51;;;;;;;0.08;0.08;;;6.40;99.90;;;;;;5065244;28;20474;-69
2023/12/30 02:42:17;;;;;;;0.00;0.00;;;6.40;99.90;;;;;;5059018;28;20036;-71
2023/12/30 02:44:42;;;;;;;0.30;0.10;;;6.40;99.90;;;;;;5055384;28;20049;-72
2023/12/30 02:47:08;;;;;;;0.10;0.10;;;6.30;99.90;;;;;;5056006;28;20051;-72
2023/12/30 02:49:34;;;;;;;0.10;0.10;;;6.30;99.90;;;;;;5057074;28;20469;-71
2023/12/30 02:52:00;;;;;;;0.52;0.17;;;6.30;99.90;;;;;;5064366;28;20041;-71
2023/12/30 02:54:27;;;;;;;0.08;0.08;;;6.30;99.90;;;;;;5073055;28;20055;-68
2023/12/30 02:56:53;;;;;;;0.20;0.20;;;6.40;99.90;;;;;;5067831;28;20048;-70
2023/12/30 02:59:19;;;;;;;0.00;0.00;;;6.40;99.90;;;;;;5041314;28;20364;-71
2023/12/30 03:01:45;;;;;;;0.00;0.00;;;6.40;99.90;;;;;;5067310;28;20045;-71
2023/12/30 03:04:10;;;;;;;0.13;0.13;;;6.50;99.90;;;;;;5070633;28;20047;-70
2023/12/30 03:06:36;;;;;;;0.10;0.10;;;6.50;99.90;;;;;;5057916;28;20486;-72
2023/12/30 03:09:02;;;;;;;0.05;0.05;;;6.50;99.90;;;;;;5072457;28;20078;-70
2023/12/30 03:11:27;;;;;;;4.05;0.10;;;6.50;99.90;;;;;;5068392;28;20047;-72
2023/12/30 03:14:05;;;;;;;0.00;0.00;;;6.40;99.90;;;;;;5072196;28;20043;-70
2023/12/30 03:16:31;;;;;;;0.20;0.20;;;6.40;99.90;;;;;;5066042;28;20040;-73
2023/12/30 03:18:58;;;;;;;0.05;0.05;;;6.40;99.90;;;;;;5056736;28;20045;-71
2023/12/30 03:21:25;;;;;;;5.57;2.60;;;6.40;99.90;;;;;;5065250;28;20094;-71
2023/12/30 03:23:50;;;;;;;0.00;0.00;;;6.40;99.90;;;;;;5071821;28;20543;-69
2023/12/30 03:26:16;;;;;;;1.75;0.22;;;6.40;99.90;;;;;;5042996;28;20121;-72
2023/12/30 03:28:43;;;;;;;0.40;0.30;;;6.30;99.90;;;;;;5070707;28;20044;-71
2023/12/30 03:31:20;;;;;;;0.28;0.28;;;6.30;99.90;;;;;;5064703;28;20435;-72
2023/12/30 03:33:45;;;;;;;2.38;0.40;;;6.40;99.90;;;;;;5067802;28;20115;-69
2023/12/30 03:36:11;;;;;;;0.50;0.50;;;6.40;99.90;;;;;;5067468;28;20620;-74
2023/12/30 03:38:36;;;;;;;0.00;0.00;;;6.40;99.90;;;;;;5068452;28;20376;-67
2023/12/30 03:41:02;;;;;;;16.80;1.02;;;6.40;99.90;;;;;;5072422;28;20568;-72
2023/12/30 03:43:35;;;;;;;0.00;0.00;;;6.40;99.90;;;;;;5068892;28;20032;-70
2023/12/30 03:46:00;;;;;;;1.88;0.08;;;6.40;99.90;;;;;;5073325;28;20051;-71
2023/12/30 03:48:26;;;;;;;22.48;0.38;;;6.30;99.90;;;;;;5066905;28;20037;-70
2023/12/30 03:50:51;;;;;;;0.05;0.05;;;6.30;99.90;;;;;;5071327;28;20386;-69
2023/12/30 03:53:17;;;;;;;0.32;0.32;;;6.30;99.90;;;;;;5069581;28;20513;-68
2023/12/30 03:55:42;;;;;;;0.10;0.10;;;6.20;99.90;;;;;;5070274;28;20078;-72
2023/12/30 03:58:09;;;;;;;0.20;0.20;;;6.20;99.90;;;;;;5051714;28;20028;-72
2023/12/30 04:00:34;;;;;;;0.57;0.25;;;6.20;99.90;;;;;;5070886;28;20040;-70
2023/12/30 04:03:00;;;;;;;0.05;0.05;;;6.20;99.90;;;;;;5065656;28;20040;-73
2023/12/30 04:05:28;;;;;;;0.00;0.00;;;6.10;99.90;;;;;;5064115;28;20032;-69
2023/12/30 04:07:54;;;;;;;0.28;0.25;;;6.10;99.90;;;;;;5068708;28;20043;-70
2023/12/30 04:10:20;;;;;;;0.08;0.08;;;6.00;99.90;;;;;;5067834;28;20130;-72
2023/12/30 04:12:45;;;;;;;0.03;0.03;;;6.00;99.90;;;;;;5067942;28;20067;-69
2023/12/30 04:15:11;;;;;;;0.20;0.20;;;6.00;99.90;;;;;;5052050;28;20036;-70
2023/12/30 04:17:37;;;;;;;0.10;0.10;;;6.00;99.90;;;;;;5067620;28;20044;-67
2023/12/30 04:20:05;;;;;;;0.10;0.10;;;6.00;99.90;;;;;;5068126;28;20127;-69
2023/12/30 04:22:31;;;;;;;0.20;0.20;;;6.00;99.90;;;;;;5092267;28;20047;-70
2023/12/30 04:24:57;;;;;;;0.00;0.00;;;5.90;99.90;;;;;;5079654;28;20072;-67
2023/12/30 04:27:23;;;;;;;0.10;0.10;;;5.90;99.90;;;;;;5069814;28;20079;-67
2023/12/30 04:29:48;;;;;;;0.05;0.05;;;5.80;99.90;;;;;;5070857;28;20037;-68
2023/12/30 04:32:14;;;;;;;0.10;0.10;;;5.70;99.90;;;;;;5061458;28;20037;-67
2023/12/30 04:34:40;;;;;;;0.38;0.10;;;5.70;99.90;;;;;;5031248;28;1060866;-69
2023/12/30 04:37:05;;;;;;;0.10;0.10;;;5.60;99.90;;;;;;5068732;28;20045;-69
2023/12/30 04:39:31;;;;;;;0.00;0.00;;;5.60;99.90;;;;;;5057001;28;20442;-66
2023/12/30 04:41:59;;;;;;;0.13;0.13;;;5.70;99.90;;;;;;5061463;28;20041;-70
2023/12/30 04:44:25;;;;;;;0.00;0.00;;;5.70;99.90;;;;;;5072330;28;20039;-68
2023/12/30 04:46:50;;;;;;;0.00;0.00;;;5.80;99.90;;;;;;5070036;28;20116;-69
2023/12/30 04:49:16;;;;;;;1.45;0.70;;;5.80;99.90;;;;;;5071328;28;20087;-69
2023/12/30 04:51:42;;;;;;;0.10;0.10;;;5.90;99.90;;;;;;5071147;28;20059;-69
2023/12/30 04:54:08;;;;;;;0.10;0.10;;;6.00;99.90;;;;;;5085697;28;20041;-68
2023/12/30 04:56:34;;;;;;;0.30;0.30;;;5.90;99.90;;;;;;5067598;28;20066;-69
2023/12/30 04:59:00;;;;;;;1.02;0.30;;;5.90;99.90;;;;;;5066051;28;20036;-71
2023/12/30 05:01:25;;;;;;;0.22;0.22;;;5.80;99.90;;;;;;5063717;28;20029;-67
2023/12/30 05:03:51;;;;;;;1.17;0.75;;;5.80;99.90;;;;;;5070722;28;20094;-68
2023/12/30 05:06:22;;;;;;;0.00;0.00;;;5.70;99.90;;;;;;5067399;28;20043;-70
2023/12/30 05:08:48;;;;;;;0.00;0.00;;;5.70;99.90;;;;;;5069121;28;20101;-68
2023/12/30 05:11:14;;;;;;;0.25;0.15;;;5.60;99.90;;;;;;5067576;28;20041;-68
2023/12/30 05:13:40;;;;;;;0.00;0.00;;;5.50;99.90;;;;;;5066084;28;20249;-67
2023/12/30 05:16:06;;;;;;;0.00;0.00;;;5.40;99.90;;;;;;5072309;28;20109;-68
2023/12/30 05:18:31;;;;;;;0.25;0.10;;;5.40;99.90;;;;;;5067370;28;20044;-68
2023/12/30 05:20:57;;;;;;;0.15;0.15;;;5.30;99.90;;;;;;5066609;28;20043;-68
2023/12/30 05:23:22;;;;;;;2.78;0.25;;;5.20;99.90;;;;;;5066045;28;20443;-67
2023/12/30 05:25:48;;;;;;;0.10;0.10;;;5.20;99.90;;;;;;5065275;28;20162;-67
2023/12/30 05:28:19;;;;;;;0.13;0.13;;;5.10;99.90;;;;;;5067225;28;20075;-68
2023/12/30 05:30:44;;;;;;;0.10;0.10;;;5.10;99.90;;;;;;5069059;28;20124;-69
2023/12/30 05:33:10;;;;;;;0.05;0.05;;;5.10;99.90;;;;;;5069466;28;20060;-66
2023/12/30 05:35:36;;;;;;;2.80;0.20;;;5.00;99.90;;;;;;5063644;28;20573;-68
2023/12/30 05:38:03;;;;;;;0.10;0.10;;;5.00;99.90;;;;;;5066164;28;20040;-67
2023/12/30 05:40:30;;;;;;;0.03;0.03;;;5.00;99.90;;;;;;5068958;28;20072;-67
2023/12/30 05:42:55;;;;;;;2.70;0.55;;;4.90;99.90;;;;;;5069102;28;20167;-69
2023/12/30 05:45:21;;;;;;;0.00;0.00;;;5.00;99.90;;;;;;5065516;28;20127;-71
2023/12/30 05:47:46;;;;;;;0.10;0.10;;;5.00;99.90;;;;;;5065104;28;20127;-67
2023/12/30 05:50:12;;;;;;;0.00;0.00;;;5.00;99.90;;;;;;5069908;28;20039;-67
2023/12/30 05:52:38;;;;;;;12.35;0.85;;;5.00;99.90;;;;;;5067465;28;20048;-70
2023/12/30 05:55:04;;;;;;;0.00;0.00;;;4.90;99.90;;;;;;5065701;28;20040;-66
2023/12/30 05:57:30;;;;;;;0.20;0.20;;;5.00;99.90;;;;;;5051499;28;20082;-67
2023/12/30 06:00:00;;;;;;;0.20;0.20;;;5.00;99.90;;;;;;5064520;28;20040;-66
2023/12/30 06:02:26;;;;;;;0.00;0.00;;;5.10;99.90;;;;;;5069310;28;20121;-68
2023/12/30 06:04:52;;;;;;;0.00;0.00;;;5.00;99.90;;;;;;5063681;28;20088;-68
2023/12/30 06:07:18;;;;;;;0.10;0.10;;;4.90;99.90;;;;;;5066887;28;20059;-66
2023/12/30 06:09:44;;;;;;;3.63;0.20;;;4.80;99.90;;;;;;5064370;28;20036;-67
2023/12/30 06:12:10;;;;;;;0.25;0.22;;;4.80;99.90;;;;;;5069709;28;20037;-67
2023/12/30 06:14:36;;;;;;;0.00;0.00;;;4.70;99.90;;;;;;5064701;28;20040;-67
2023/12/30 06:17:03;;;;;;;0.55;0.52;;;4.70;99.90;;;;;;5063614;28;20524;-66
2023/12/30 06:19:28;;;;;;;0.00;0.00;;;4.60;99.90;;;;;;5064358;28;20031;-66
2023/12/30 06:21:54;;;;;;;0.10;0.10;;;4.60;99.90;;;;;;5063300;28;20040;-67
2023/12/30 06:24:19;;;;;;;0.40;0.40;;;4.70;99.90;;;;;;5062332;28;20033;-67
2023/12/30 06:26:45;;;;;;;2.53;0.30;;;4.60;99.90;;;;;;5064476;28;20086;-67
2023/12/30 06:29:10;;;;;;;0.00;0.00;;;4.60;99.90;;;;;;5065641;28;20033;-67
2023/12/30 06:31:41;;;;;;;5.18;0.30;;;4.60;99.90;;;;;;5049299;28;20047;-67
2023/12/30 06:34:07;;;;;;;0.10;0.10;;;4.50;99.90;;;;;;5064728;28;20074;-68
2023/12/30 06:36:32;;;;;;;0.03;0.03;;;4.50;99.90;;;;;;5077081;28;20530;-68
2023/12/30 06:38:59;;;;;;;0.00;0.00;;;4.50;99.90;;;;;;5061137;28;20108;-67
2023/12/30 06:41:24;;;;;;;0.08;0.08;;;4.40;99.90;;;;;;5069106;28;20032;-66
2023/12/30 06:43:51;;;;;;;0.35;0.35;;;4.40;99.90;;;;;;5068370;28;20167;-67
2023/12/30 06:46:21;;;;;;;0.80;0.65;;;4.40;99.90;;;;;;5064004;28;20040;-67
2023/12/30 06:48:47;;;;;;;0.10;0.10;;;4.40;99.90;;;;;;5059183;28;20086;-67
2023/12/30 06:51:12;;;;;;;1.98;1.55;;;4.40;99.90;;;;;;5064157;28;20425;-67
2023/12/30 06:53:38;;;;;;;3.10;0.47;;;4.40;99.90;;;;;;5065219;28;20123;-68
2023/12/30 06:56:04;;;;;;;0.05;0.05;;;4.40;99.90;;;;;;5064018;28;20036;-67
2023/12/30 06:58:30;;;;;;;0.68;0.68;;;4.30;99.90;;;;;;5067483;28;20486;-67
2023/12/30 07:00:56;;;;;;;0.10;0.10;;;4.30;99.90;;;;;;5049345;28;20032;-67
2023/12/30 07:03:22;;;;;;;0.05;0.05;;;4.30;99.90;;;;;;5065948;28;20650;-67
2023/12/30 07:05:48;;;;;;;0.00;0.00;;;4.30;99.90;;;;;;5062172;28;20119;-67
2023/12/30 07:08:14;;;;;;;0.00;0.00;;;4.30;99.90;;;;;;5065427;28;20124;-67
2023/12/30 07:10:41;;;;;;;0.10;0.10;;;4.20;99.90;;;;;;5062736;28;20060;-67
2023/12/30 07:13:07;;;;;;;0.13;0.13;;;4.20;99.90;;;;;;5066559;28;20150;-67
2023/12/30 07:15:32;;;;;;;0.10;0.10;;;4.20;99.90;;;;;;5063022;28;21627;-68
2023/12/30 07:17:59;;;;;;;0.65;0.28;;;4.20;99.90;;;;;;5063278;28;20072;-67
2023/12/30 07:20:26;;;;;;;5.68;0.30;;;4.20;99.90;;;;;;5069941;28;20031;-68
2023/12/30 07:22:53;;;;;;;0.80;0.68;;;4.20;99.90;;;;;;5067692;28;20040;-67
2023/12/30 07:25:18;;;;;;;0.03;0.03;;;4.20;99.90;;;;;;5061429;28;20136;-67
2023/12/30 07:27:44;;;;;;;1.55;1.10;;;4.30;99.90;;;;;;5071345;28;20123;-67
2023/12/30 07:30:11;;;;;;;0.10;0.10;;;4.20;99.90;;;;;;5094897;28;20068;-66
2023/12/30 07:32:37;;;;;;;0.10;0.10;;;4.20;99.90;;;;;;5069572;28;20044;-68
2023/12/30 07:35:05;;;;;;;0.00;0.00;;;4.20;99.90;;;;;;5066509;28;20047;-68
2023/12/30 07:37:32;;;;;;;0.28;0.28;;;4.20;99.90;;;;;;5069628;28;20146;-67
2023/12/30 07:39:59;;;;;;;0.00;0.00;;;4.20;99.90;;;;;;5064419;28;20089;-68
2023/12/30 07:42:25;;;;;;;0.20;0.20;;;4.20;99.90;;;;;;5102498;28;20475;-68
2023/12/30 07:44:52;;;;;;;0.00;0.00;;;4.30;99.90;;;;;;5051677;28;20052;-67
2023/12/30 07:47:19;;;;;;;0.00;0.00;;;4.20;99.90;;;;;;5069576;28;20097;-66
2023/12/30 07:49:47;;;;;;;0.10;0.10;;;4.20;99.90;;;;;;5067178;28;20033;-67
2023/12/30 07:52:13;;;;;;;0.10;0.10;;;4.30;99.90;;;;;;5072853;28;20495;-66
2023/12/30 07:54:39;;;;;;;0.00;0.00;;;4.30;99.90;;;;;;5069873;28;20048;-67
2023/12/30 07:57:05;;;;;;;0.38;0.15;;;4.30;99.90;;;;;;5067988;28;20055;-67
2023/12/30 07:59:30;;;;;;;2.17;0.47;;;4.30;99.90;;;;;;5057752;28;20399;-68
2023/12/30 08:01:56;;;;;;;0.10;0.10;;;4.30;99.90;;;;;;5066183;28;20040;-67
2023/12/30 08:04:25;;;;;;;0.00;0.00;;;4.30;99.90;;;;;;5089898;28;20049;-68
2023/12/30 08:06:53;;;;;;;0.03;0.03;;;4.30;99.90;;;;;;5065981;28;20048;-67
2023/12/30 08:09:18;;;;;;;1.45;0.63;;;4.30;99.90;;;;;;5063299;28;20064;-68
2023/12/30 08:11:44;;;;;;;5.63;0.80;;;4.30;99.90;;;;;;5066707;28;20099;-67
2023/12/30 08:14:13;;;;;;;0.05;0.05;;;4.30;99.90;;;;;;5070233;28;20040;-66
2023/12/30 08:16:38;;;;;;;0.35;0.35;;;4.40;99.90;;;;;;5069498;28;20068;-67
2023/12/30 08:19:04;;;;;;;0.05;0.05;;;4.40;99.90;;;;;;5070057;28;20071;-67
2023/12/30 08:21:30;;;;;;;0.00;0.00;;;4.40;99.90;;;;;;5061537;28;20395;-67
2023/12/30 08:23:57;;;;;;;0.10;0.10;;;4.50;99.90;;;;;;5070761;28;20024;-67
2023/12/30 08:26:23;;;;;;;0.20;0.20;;;4.50;99.90;;;;;;5066297;28;20200;-67
2023/12/30 08:28:50;;;;;;;0.00;0.00;;;4.60;99.90;;;;;;5068362;28;20079;-67
2023/12/30 08:31:16;;;;;;;0.08;0.08;;;4.60;99.90;;;;;;5053345;28;20076;-67
2023/12/30 08:33:41;;;;;;;0.10;0.10;;;4.60;99.90;;;;;;5055358;28;20145;-67
2023/12/30 08:36:07;;;;;;;0.52;0.30;;;4.60;99.90;;;;;;5064800;28;20616;-66
2023/12/30 08:38:33;;;;;;;0.00;0.00;;;4.60;99.90;;;;;;5070342;28;20044;-68
2023/12/30 08:40:59;;;;;;;0.20;0.20;;;4.60;99.90;;;;;;5064729;28;20130;-67
2023/12/30 08:43:24;;;;;;;0.00;0.00;;;4.60;99.90;;;;;;5070210;28;20040;-68
2023/12/30 08:45:50;;;;;;;0.30;0.20;;;4.70;99.90;;;;;;5050106;28;20045;-68
2023/12/30 08:48:16;;;;;;;0.17;0.17;;;4.70;99.90;;;;;;5064451;28;20028;-69
2023/12/30 08:50:44;;;;;;;0.10;0.10;;;4.70;99.90;;;;;;5064303;28;20044;-70
2023/12/30 08:53:10;;;;;;;0.00;0.00;;;4.70;99.90;;;;;;5085407;28;20040;-68
2023/12/30 08:55:36;;;;;;;0.05;0.05;;;4.70;99.90;;;;;;5070954;28;20120;-69
2023/12/30 08:58:02;;;;;;;0.10;0.10;;;4.70;99.90;;;;;;5069532;28;20605;-68
2023/12/30 09:00:27;;;;;;;0.08;0.08;;;4.70;99.90;;;;;;5066850;28;20042;-68
2023/12/30 09:02:55;;;;;;;0.10;0.10;;;4.80;99.90;;;;;;5103806;28;20036;-70
2023/12/30 09:05:21;;;;;;;0.15;0.15;;;4.80;99.90;;;;;;5065662;28;20050;-69
2023/12/30 09:07:48;;;;;;;0.00;0.00;;;4.80;99.90;;;;;;5059803;28;20051;-69
2023/12/30 09:10:15;;;;;;;0.00;0.00;;;4.90;99.90;;;;;;5052996;28;20047;-69
2023/12/30 09:12:40;;;;;;;0.10;0.10;;;4.90;99.90;;;;;;5061644;28;20041;-68
2023/12/30 09:15:06;;;;;;;3.40;1.88;;;4.90;99.90;;;;;;5050991;28;20041;-70
2023/12/30 09:17:32;;;;;;;1.65;0.35;;;5.00;99.90;;;;;;5072040;28;20532;-68
2023/12/30 09:19:58;;;;;;;0.20;0.20;;;5.00;99.90;;;;;;5063741;28;20040;-69
2023/12/30 09:22:24;;;;;;;0.10;0.10;;;5.00;99.90;;;;;;5055272;28;20039;-70
2023/12/30 09:24:49;;;;;;;3.63;0.20;;;5.00;99.90;;;;;;5059556;28;20032;-69
2023/12/30 09:27:15;;;;;;;0.10;0.10;;;5.10;99.90;;;;;;5053746;28;20036;-69
2023/12/30 09:29:41;;;;;;;0.15;0.05;;;5.10;99.90;;;;;;5067446;28;20148;-69
2023/12/30 09:32:07;;;;;;;0.32;0.30;;;5.20;99.90;;;;;;5049469;28;20041;-71
2023/12/30 09:34:33;;;;;;;0.00;0.00;;;5.20;99.90;;;;;;5049382;28;20487;-69
2023/12/30 09:36:58;;;;;;;0.25;0.20;;;5.20;99.90;;;;;;5061903;28;20460;-70
2023/12/30 09:39:24;;;;;;;0.00;0.00;;;5.30;99.90;;;;;;5062254;28;20036;-70
2023/12/30 09:41:49;;;;;;;0.03;0.03;;;5.30;99.90;;;;;;5053296;28;20079;-68
2023/12/30 09:44:17;;;;;;;0.08;0.08;;;5.40;99.90;;;;;;5048042;28;20095;-71
2023/12/30 09:46:44;;;;;;;1.65;0.30;;;5.50;99.90;;;;;;5048762;28;20040;-69
2023/12/30 09:49:12;;;;;;;18.08;0.55;;;5.50;99.90;;;;;;5059829;28;20052;-70
2023/12/30 09:51:38;;;;;;;0.00;0.00;;;5.60;99.90;;;;;;5064557;28;20049;-68
2023/12/30 09:54:04;;;;;;;0.00;0.00;;;5.60;99.90;;;;;;5047982;28;20055;-68
2023/12/30 09:56:31;;;;;;;0.10;0.10;;;5.70;99.90;;;;;;5063324;28;20487;-68
2023/12/30 09:59:00;;;;;;;0.63;0.63;;;5.70;99.90;;;;;;5053281;28;20521;-70
2023/12/30 10:01:27;;;;;;;0.00;0.00;;;5.70;99.90;;;;;;5082100;28;20041;-70
2023/12/30 10:03:53;;;;;;;0.10;0.10;;;5.80;99.90;;;;;;5051818;28;20071;-72
2023/12/30 10:06:21;;;;;;;0.10;0.10;;;5.80;99.90;;;;;;5063421;28;20040;-71
2023/12/30 10:08:49;;;;;;;0.10;0.10;;;5.90;99.90;;;;;;5067603;28;20040;-73
2023/12/30 10:11:15;;;;;;;4.65;0.68;;;5.90;99.90;;;;;;5055348;28;20124;-69
2023/12/30 10:13:41;;;;;;;0.20;0.20;;;5.90;99.90;;;;;;5063460;28;20051;-69
2023/12/30 10:16:09;;;;;;;3.90;0.40;;;6.00;99.90;;;;;;5055469;28;20052;-71
2023/12/30 10:18:38;;;;;;;0.08;0.08;;;6.00;99.90;;;;;;5096726;28;20483;-71
2023/12/30 10:21:05;;;;;;;0.43;0.35;;;6.10;99.90;;;;;;5058370;28;20067;-69
2023/12/30 10:23:35;;;;;;;0.57;0.50;;;6.20;99.90;;;;;;5052911;28;20033;-71
2023/12/30 10:26:04;;;;;;;0.45;0.40;;;6.20;99.90;;;;;;5055876;28;20029;-74
2023/12/30 10:28:32;;;;;;;0.10;0.10;;;6.20;99.90;;;;;;5046325;28;20048;-73
2023/12/30 10:31:02;;;;;;;0.32;0.20;;;6.30;99.90;;;;;;5058047;28;20044;-70
2023/12/30 10:33:29;;;;;;;0.13;0.13;;;6.40;99.90;;;;;;5048645;28;20041;-74
2023/12/30 10:35:55;;;;;;;6.28;1.08;;;6.40;99.90;;;;;;5057439;28;20033;-71
2023/12/30 10:38:22;;;;;;;1.10;1.00;;;6.60;99.90;;;;;;5068427;28;20040;-73
2023/12/30 10:40:49;;;;;;;1.67;1.30;;;6.70;99.90;;;;;;5071880;28;20123;-71
2023/12/30 10:43:15;;;;;;;3.25;2.92;;;6.90;99.90;;;;;;5068411;28;20041;-73
2023/12/30 10:45:41;;;;;;;0.15;0.15;;;6.90;99.90;;;;;;5060314;28;20471;-71
2023/12/30 10:48:07;;;;;;;1.13;1.02;;;7.00;99.90;;;;;;5065144;28;20387;-74
2023/12/30 10:50:37;;;;;;;0.60;0.45;;;7.10;99.90;;;;;;5064027;28;20473;-72
2023/12/30 10:53:10;;;;;;;6.13;0.45;;;7.10;99.90;;;;;;5068750;28;20048;-69
2023/12/30 10:55:40;;;;;;;0.30;0.30;;;7.20;99.90;;;;;;5062043;28;20063;-73
2023/12/30 10:58:10;;;;;;;0.60;0.22;;;7.20;99.90;;;;;;5063619;28;20422;-75
2023/12/30 11:00:37;;;;;;;0.50;0.20;;;7.30;99.90;;;;;;5058313;28;20056;-73
2023/12/30 11:03:04;;;;;;;1.00;0.45;;;7.30;99.90;;;;;;5058604;28;20040;-70
2023/12/30 11:05:47;;;;;;;0.98;0.60;;;7.30;99.90;;;;;;5048134;28;20025;-69
2023/12/30 11:08:12;;;;;;;4.63;0.60;;;7.30;99.90;;;;;;5068987;28;20155;-70
2023/12/30 11:10:38;;;;;;;1.77;0.20;;;7.30;99.90;;;;;;5069074;28;20115;-69
2023/12/30 11:13:06;;;;;;;8.05;0.30;;;7.30;99.90;;;;;;5067054;28;20029;-69
2023/12/30 11:15:32;;;;;;;1.38;1.27;;;7.30;99.90;;;;;;5067813;28;20041;-68
2023/12/30 11:17:59;;;;;;;0.43;0.43;;;7.30;99.90;;;;;;5073200;28;20421;-69
2023/12/30 11:20:30;;;;;;;7.55;1.27;;;7.40;99.90;;;;;;5084786;28;20028;-70
2023/12/30 11:23:03;;;;;;;3.40;1.55;;;7.30;99.90;;;;;;5100861;28;20048;-71
2023/12/30 11:25:47;;;;;;;0.50;0.50;;;7.40;99.90;;;;;;5064942;28;20161;-71
2023/12/30 11:28:21;;;;;;;0.20;0.20;;;7.40;99.90;;;;;;5067039;28;20044;-70
2023/12/30 11:30:58;;;;;;;1.15;0.55;;;7.50;99.90;;;;;;5065478;28;20399;-74
2023/12/30 11:33:24;;;;;;;0.20;0.20;;;7.50;99.90;;;;;;5066860;28;20048;-73
2023/12/30 11:35:54;;;;;;;0.32;0.32;;;7.50;99.90;;;;;;5064784;28;20041;-74
2023/12/30 11:38:20;;;;;;;2.42;0.47;;;7.50;99.90;;;;;;5058921;28;20045;-71
2023/12/30 11:40:54;;;;;;;0.47;0.35;;;7.60;99.90;;;;;;5055254;28;20120;-76
2023/12/30 11:43:21;;;;;;;0.10;0.10;;;7.60;99.90;;;;;;5058827;28;20043;-73
2023/12/30 11:45:46;;;;;;;0.32;0.30;;;7.70;99.90;;;;;;5061121;28;20184;-74
2023/12/30 11:48:12;;;;;;;1.98;1.85;;;7.70;99.90;;;;;;5052059;28;20483;-69
2023/12/30 11:50:38;;;;;;;1.15;1.08;;;7.70;99.90;;;;;;5055135;28;20492;-74
2023/12/30 11:53:03;;;;;;;0.10;0.10;;;7.80;99.90;;;;;;5064613;28;20040;-72
2023/12/30 11:55:29;;;;;;;2.25;1.00;;;7.90;99.90;;;;;;5063412;28;20471;-73
2023/12/30 11:57:56;;;;;;;0.10;0.10;;;7.90;99.90;;;;;;5065054;28;20380;-71
2023/12/30 12:00:24;;;;;;;0.20;0.20;;;8.00;99.90;;;;;;5066654;28;20036;-70
2023/12/30 12:02:50;;;;;;;1.00;0.50;;;8.00;99.90;;;;;;5063602;28;20119;-77
2023/12/30 12:05:17;;;;;;;1.25;0.88;;;8.00;99.90;;;;;;5056749;28;20375;-73
2023/12/30 12:07:44;;;;;;;0.47;0.35;;;8.00;99.90;;;;;;5049060;28;20531;-71
2023/12/30 12:10:10;;;;;;;2.50;1.75;;;8.00;99.90;;;;;;5051989;28;20045;-70
2023/12/30 12:12:45;;;;;;;0.82;0.55;;;8.00;99.90;;;;;;5063030;28;20032;-69
2023/12/30 12:15:12;;;;;;;0.52;0.20;;;8.10;99.90;;;;;;5063872;28;20093;-70
2023/12/30 12:17:38;;;;;;;0.10;0.10;;;8.10;99.90;;;;;;5061548;28;20331;-69
2023/12/30 12:20:08;;;;;;;0.20;0.20;;;8.10;99.90;;;;;;5067489;28;20090;-69
2023/12/30 12:22:34;;;;;;;0.75;0.75;;;8.10;99.90;;;;;;5068952;28;20044;-71
2023/12/30 12:25:02;;;;;;;0.30;0.30;;;8.10;99.90;;;;;;5061444;28;20044;-72
2023/12/30 12:27:28;;;;;;;0.10;0.10;;;8.20;99.90;;;;;;5062950;28;20348;-71
2023/12/30 12:29:54;;;;;;;2.00;0.38;;;8.20;99.90;;;;;;5058132;28;20098;-71
2023/12/30 12:32:21;;;;;;;0.38;0.38;;;8.20;99.90;;;;;;5065109;28;20041;-66
2023/12/30 12:34:47;;;;;;;1.00;0.57;;;8.30;99.90;;;;;;5066258;28;20105;-68
2023/12/30 12:37:15;;;;;;;0.10;0.10;;;8.30;99.90;;;;;;5056373;28;20118;-67
2023/12/30 12:39:44;;;;;;;0.65;0.55;;;8.30;99.90;;;;;;5062519;28;20040;-67
2023/12/30 12:42:11;;;;;;;0.50;0.50;;;8.30;99.90;;;;;;5062375;28;20037;-68
2023/12/30 12:44:38;;;;;;;6.57;0.75;;;8.30;99.90;;;;;;5068727;28;20388;-67
2023/12/30 12:47:03;;;;;;;1.75;1.65;;;8.30;99.90;;;;;;5062755;28;20048;-67
2023/12/30 12:49:29;;;;;;;0.17;0.10;;;8.30;99.90;;;;;;5068692;28;20048;-68
2023/12/30 12:51:56;;;;;;;0.13;0.13;;;8.30;99.90;;;;;;5058830;28;20033;-68
2023/12/30 12:54:21;;;;;;;0.17;0.17;;;8.40;99.90;;;;;;5078243;28;20044;-68